Time;durP1;ratioP1;P1;durP2;ratioP2;P2;SDS_P1;SDS_P2;PMS_P1;PMS_P2;Temp;Humidity;BMP_temperature;BMP_pressure;BME280_temperature;BME280_humidity;BME280_pressure;Samples;Min_cycle;Max_cycle;Signal;HPM_P1;HPM_P2
2021/04/28 00:00:28;;;;;;;11.80;7.85;;;;;;;3.58;60.14;100728.17;1700091;83;21187;-72
2021/04/28 00:02:56;;;;;;;13.05;8.05;;;;;;;3.52;60.27;100733.21;1698317;83;22134;-72
2021/04/28 00:05:26;;;;;;;11.57;7.20;;;;;;;3.45;61.26;100734.41;1674482;83;21179;-70
2021/04/28 00:07:55;;;;;;;15.30;8.25;;;;;;;3.45;61.26;100734.41;1703540;83;21211;-70
2021/04/28 00:10:30;;;;;;;12.40;7.67;;;;;;;3.42;61.21;100730.64;1698105;83;21149;-72
2021/04/28 00:12:58;;;;;;;11.55;7.17;;;;;;;3.42;61.24;100730.64;1705880;83;21129;-72
2021/04/28 00:15:30;;;;;;;10.82;6.75;;;;;;;3.44;61.20;100734.84;1704998;83;21210;-72
2021/04/28 00:17:59;;;;;;;15.32;7.90;;;;;;;3.56;60.99;100732.61;1700038;83;21183;-72
2021/04/28 00:20:37;;;;;;;13.25;8.18;;;;;;;3.67;60.09;100732.52;1700142;83;21244;-72
2021/04/28 00:23:00;;;;;;;13.62;7.15;;;;;;;3.77;59.41;100733.41;1687238;83;21200;-70
2021/04/28 00:25:30;;;;;;;11.78;7.20;;;;;;;3.83;58.92;100734.41;1749952;80;21179;-71
2021/04/28 00:27:59;;;;;;;12.90;7.97;;;;;;;3.85;58.57;100741.24;1754849;81;21254;-70
2021/04/28 00:30:28;;;;;;;14.68;7.70;;;;;;;3.86;58.31;100735.09;1753258;81;21168;-70
2021/04/28 00:32:56;;;;;;;12.45;6.92;;;;;;;3.84;58.14;100742.61;1751135;81;21604;-70
2021/04/28 00:35:26;;;;;;;15.88;8.45;;;;;;;3.81;57.99;100734.94;1755717;81;21172;-71
2021/04/28 00:37:55;;;;;;;17.35;7.80;;;;;;;3.74;57.92;100738.28;1736886;80;21172;-70
2021/04/28 00:40:32;;;;;;;13.28;7.62;;;;;;;3.68;57.86;100737.25;1751553;81;21220;-67
2021/04/28 00:43:01;;;;;;;10.88;6.67;;;;;;;3.61;57.79;100739.75;1747690;81;21229;-69
2021/04/28 00:45:33;;;;;;;13.80;8.08;;;;;;;3.56;57.61;100736.52;1753507;81;21148;-72
2021/04/28 00:48:05;;;;;;;13.18;6.87;;;;;;;3.49;57.46;100735.48;1750636;81;21762;-72
2021/04/28 00:50:38;;;;;;;16.90;8.18;;;;;;;3.44;57.36;100743.11;1751787;81;21181;-72
2021/04/28 00:53:08;;;;;;;12.98;7.10;;;;;;;3.37;57.16;100743.00;1752806;81;22113;-72
2021/04/28 00:55:36;;;;;;;13.38;7.90;;;;;;;3.37;57.16;100743.00;1736662;81;21125;-72
2021/04/28 00:58:04;;;;;;;12.63;6.62;;;;;;;3.37;57.28;100745.61;1752714;81;22322;-72
2021/04/28 01:00:34;;;;;;;16.62;8.03;;;;;;;3.34;57.06;100746.11;1719566;81;21200;-71
2021/04/28 01:03:04;;;;;;;15.32;8.38;;;;;;;3.30;56.92;100749.77;1735788;81;21144;-69
2021/04/28 01:05:33;;;;;;;16.52;8.05;;;;;;;3.28;56.85;100755.97;1754907;81;22611;-69
2021/04/28 01:08:01;;;;;;;16.50;8.15;;;;;;;3.22;57.08;100748.42;1756501;81;21171;-70
2021/04/28 01:10:35;;;;;;;15.72;8.88;;;;;;;3.19;56.99;100753.75;1738300;82;21156;-70
2021/04/28 01:13:05;;;;;;;15.32;7.62;;;;;;;3.14;57.28;100752.20;1748643;81;21559;-71
2021/04/28 01:15:34;;;;;;;12.88;7.65;;;;;;;3.12;58.20;100747.97;1755201;81;21160;-70
2021/04/28 01:18:04;;;;;;;11.95;7.62;;;;;;;3.11;58.08;100754.06;1753549;80;21156;-70
2021/04/28 01:20:36;;;;;;;15.55;7.25;;;;;;;3.11;58.08;100754.06;1746875;81;21148;-70
2021/04/28 01:23:07;;;;;;;13.08;7.08;;;;;;;3.09;58.11;100741.16;1759895;80;21220;-70
2021/04/28 01:25:36;;;;;;;12.82;7.45;;;;;;;3.07;58.36;100749.45;1763630;80;21136;-70
2021/04/28 01:28:10;;;;;;;17.52;8.23;;;;;;;3.07;58.29;100752.52;1760458;80;21093;-70
2021/04/28 01:30:54;;;;;;;14.13;7.92;;;;;;;3.04;58.30;100749.58;1759431;80;21630;-71
2021/04/28 01:33:37;;;;;;;14.93;8.43;;;;;;;3.02;58.18;100750.11;1741878;80;21231;-70
2021/04/28 01:48:28;;;;;;;13.80;8.55;;;;;;;4.67;55.77;100743.84;1825946;76;22696;-69
2021/04/28 01:50:58;;;;;;;13.58;9.08;;;;;;;4.77;55.13;100746.84;1776567;79;21124;-69
2021/04/28 01:53:27;;;;;;;16.45;8.08;;;;;;;4.69;55.08;100739.86;1799207;79;22186;-70
2021/04/28 01:55:55;;;;;;;15.28;7.40;;;;;;;4.60;55.05;100751.12;1776212;79;21678;-71
2021/04/28 01:58:39;;;;;;;18.45;7.25;;;;;;;4.49;55.01;100749.52;1801049;79;21191;-71
2021/04/28 02:01:09;;;;;;;13.28;8.25;;;;;;;4.31;55.14;100749.94;1799333;79;21167;-69
2021/04/28 02:03:38;;;;;;;13.35;7.30;;;;;;;4.13;55.36;100749.05;1801242;79;21144;-70
2021/04/28 02:06:09;;;;;;;12.80;7.35;;;;;;;3.98;55.61;100757.58;1795880;79;21436;-69
2021/04/28 02:08:37;;;;;;;14.00;7.00;;;;;;;3.80;55.95;100754.06;1800069;79;21128;-70
2021/04/28 02:11:05;;;;;;;13.45;7.25;;;;;;;3.65;56.31;100756.94;1773450;79;21652;-69
2021/04/28 02:13:37;;;;;;;14.30;7.83;;;;;;;3.51;56.67;100745.81;1799338;79;21112;-70
2021/04/28 02:16:07;;;;;;;17.02;7.92;;;;;;;3.42;56.99;100753.58;1801013;79;21210;-70
2021/04/28 02:18:36;;;;;;;13.08;7.83;;;;;;;3.33;57.40;100750.11;1771425;79;21964;-70
2021/04/28 02:21:04;;;;;;;14.73;8.63;;;;;;;3.29;57.71;100748.53;1797972;79;22245;-70
2021/04/28 02:23:50;;;;;;;14.20;7.75;;;;;;;3.26;57.96;100756.46;1803092;78;21598;-70
2021/04/28 02:26:19;;;;;;;13.93;8.68;;;;;;;3.21;58.50;100754.52;1762344;78;21554;-70
2021/04/28 02:28:47;;;;;;;16.02;8.88;;;;;;;3.14;58.82;100761.73;1799012;79;21603;-70
2021/04/28 02:31:14;;;;;;;14.35;7.80;;;;;;;3.13;58.84;100764.80;1799524;79;21641;-71
2021/04/28 02:33:43;;;;;;;15.43;7.75;;;;;;;3.08;59.01;100768.06;1771604;79;21646;-70
2021/04/28 02:36:45;;;;;;;13.90;9.33;;;;;;;3.08;59.19;100768.52;1830920;76;22858;-71
2021/04/28 02:39:43;;;;;;;14.43;10.20;;;;;;;2.97;59.24;100767.20;1798854;79;21183;-70
2021/04/28 02:42:11;;;;;;;17.65;11.03;;;;;;;2.88;59.53;100769.36;1802841;78;21249;-71
2021/04/28 02:44:41;;;;;;;17.95;9.60;;;;;;;2.76;59.69;100771.55;1800309;78;21053;-71
2021/04/28 02:47:11;;;;;;;18.30;10.15;;;;;;;2.68;59.98;100772.32;1800508;78;21152;-70
2021/04/28 02:49:45;;;;;;;21.65;11.05;;;;;;;2.64;60.01;100773.37;1768897;79;21069;-70
2021/04/28 02:52:39;;;;;;;11.33;8.23;;;;;;;2.63;60.14;100775.56;1802735;78;23193;-70
2021/04/28 02:55:09;;;;;;;20.40;10.23;;;;;;;2.57;60.16;100775.38;1775249;80;21152;-71
2021/04/28 02:57:38;;;;;;;15.70;8.83;;;;;;;2.57;60.14;100775.38;1773439;79;21223;-70
2021/04/28 03:00:09;;;;;;;13.80;8.85;;;;;;;2.56;60.01;100772.83;1734209;80;21627;-70
2021/04/28 03:02:38;;;;;;;11.55;8.38;;;;;;;2.58;60.11;100776.20;1748720;80;21140;-70
2021/04/28 03:05:09;;;;;;;14.30;7.95;;;;;;;2.58;60.10;100771.01;1776124;78;21750;-71
2021/04/28 03:07:56;;;;;;;23.35;9.23;;;;;;;2.59;60.05;100776.14;1759484;78;21544;-71
2021/04/28 03:10:25;;;;;;;18.67;9.10;;;;;;;2.57;60.16;100776.67;1730366;80;21458;-67
2021/04/28 03:12:55;;;;;;;15.70;8.83;;;;;;;2.59;60.08;100778.74;1735058;80;21231;-67
2021/04/28 03:15:36;;;;;;;18.95;9.70;;;;;;;2.62;60.17;100785.55;1722506;82;21181;-68
2021/04/28 03:18:07;;;;;;;17.42;9.15;;;;;;;2.64;60.36;100779.86;1741047;81;21193;-67
2021/04/28 03:20:36;;;;;;;12.43;8.13;;;;;;;2.69;60.38;100787.02;1674346;82;21224;-68
2021/04/28 03:23:07;;;;;;;17.45;8.95;;;;;;;2.79;60.39;100792.23;1732280;81;22227;-67
2021/04/28 03:25:37;;;;;;;15.93;9.18;;;;;;;2.79;60.39;100792.23;1689781;82;21216;-68
2021/04/28 03:28:07;;;;;;;14.87;8.60;;;;;;;2.84;60.34;100793.77;1735105;81;21577;-70
2021/04/28 03:30:36;;;;;;;19.67;10.20;;;;;;;2.85;60.23;100800.67;1721542;81;21200;-70
2021/04/28 03:33:04;;;;;;;16.23;10.38;;;;;;;2.86;60.26;100804.95;1730548;81;21136;-69
2021/04/28 03:35:51;;;;;;;18.55;9.78;;;;;;;2.88;60.32;100805.29;1728246;81;21643;-69
2021/04/28 03:38:29;;;;;;;14.10;9.28;;;;;;;2.89;60.39;100810.89;1709148;82;21618;-69
2021/04/28 03:40:59;;;;;;;19.40;10.15;;;;;;;2.89;60.39;100810.89;1711676;83;21609;-69
2021/04/28 03:43:27;;;;;;;23.30;9.78;;;;;;;2.92;60.45;100817.70;1708747;83;21160;-66
2021/04/28 03:45:54;;;;;;;15.32;9.18;;;;;;;2.93;60.36;100812.91;1719395;82;21180;-65
2021/04/28 03:48:30;;;;;;;21.05;10.78;;;;;;;2.96;60.38;100820.58;1738681;81;21430;-67
2021/04/28 03:50:59;;;;;;;16.12;10.18;;;;;;;3.01;60.96;100825.13;1687612;83;21257;-67
2021/04/28 03:53:28;;;;;;;18.65;10.15;;;;;;;3.01;60.96;100825.13;1765866;79;21120;-68
2021/04/28 03:55:59;;;;;;;17.73;10.53;;;;;;;3.10;60.41;100827.34;1708998;82;21146;-68
2021/04/28 03:58:28;;;;;;;18.15;10.85;;;;;;;3.14;60.13;100828.91;1762952;80;21132;-67
2021/04/28 04:00:59;;;;;;;17.87;10.53;;;;;;;3.24;60.03;100833.72;1759094;80;21185;-68
2021/04/28 04:03:34;;;;;;;14.45;9.03;;;;;;;3.24;60.03;100833.72;1754561;80;21164;-67
2021/04/28 04:06:22;;;;;;;16.80;10.35;;;;;;;3.32;59.94;100832.47;1739539;80;21214;-67
2021/04/28 04:09:09;;;;;;;17.30;9.78;;;;;;;3.45;59.74;100847.11;1774074;80;21184;-67
2021/04/28 04:11:38;;;;;;;19.65;10.75;;;;;;;3.45;59.74;100847.11;1742772;80;21183;-67
2021/04/28 04:14:08;;;;;;;18.42;10.63;;;;;;;3.48;59.37;100844.39;1769960;80;21227;-68
2021/04/28 04:16:36;;;;;;;13.75;9.13;;;;;;;3.53;59.40;100850.67;1768257;80;21659;-68
2021/04/28 04:19:07;;;;;;;21.15;9.33;;;;;;;3.59;59.17;100847.81;1774541;80;21145;-65
2021/04/28 04:21:37;;;;;;;16.45;8.60;;;;;;;3.65;59.27;100848.86;1764484;79;21179;-71
2021/04/28 04:24:28;;;;;;;18.30;10.38;;;;;;;3.77;59.04;100847.47;1863735;75;23291;-71
2021/04/28 04:27:08;;;;;;;14.00;8.45;;;;;;;3.81;58.76;100863.33;1805711;77;20997;-71
2021/04/28 04:29:53;;;;;;;14.73;8.83;;;;;;;3.86;58.50;100858.76;1806025;77;21321;-68
2021/04/28 04:32:27;;;;;;;15.58;8.98;;;;;;;3.91;58.11;100860.70;1798556;77;21167;-70
2021/04/28 04:35:10;;;;;;;15.58;7.12;;;;;;;3.98;57.96;100865.17;1736493;80;21165;-71
2021/04/28 04:37:57;;;;;;;16.80;8.25;;;;;;;4.10;56.92;100866.38;1803774;77;21698;-72
2021/04/28 05:02:00;;;;;;;10.68;5.92;;;;;;;4.52;56.19;100880.95;1859660;74;22363;-69
2021/04/28 05:04:30;;;;;;;13.43;7.62;;;;;;;4.53;55.72;100882.66;1816462;77;21187;-69
2021/04/28 05:06:59;;;;;;;11.65;7.37;;;;;;;4.65;55.31;100888.58;1809413;78;21337;-68
2021/04/28 05:09:28;;;;;;;11.22;6.35;;;;;;;4.76;54.86;100888.09;1817839;77;21149;-70
2021/04/28 05:11:55;;;;;;;10.63;5.42;;;;;;;4.90;54.40;100895.25;1822703;78;21031;-69
2021/04/28 05:14:23;;;;;;;11.22;6.03;;;;;;;4.99;53.59;100886.99;1820473;77;21104;-69
2021/04/28 05:16:53;;;;;;;11.10;6.50;;;;;;;5.13;52.88;100895.44;1811099;77;21181;-69
2021/04/28 05:19:23;;;;;;;13.88;6.28;;;;;;;5.25;52.76;100899.20;1802642;77;21187;-69
2021/04/28 05:21:51;;;;;;;12.93;5.97;;;;;;;5.35;52.39;100901.73;1818171;78;21120;-69
2021/04/28 05:24:19;;;;;;;11.25;5.53;;;;;;;5.46;52.35;100906.88;1818972;78;21096;-69
2021/04/28 05:26:59;;;;;;;10.98;5.90;;;;;;;5.56;51.79;100910.27;1815547;78;21144;-71
2021/04/28 05:29:26;;;;;;;11.57;4.40;;;;;;;5.66;51.18;100905.40;1789313;78;21198;-71
2021/04/28 05:31:54;;;;;;;10.43;5.05;;;;;;;5.74;49.75;100904.55;1810799;77;22386;-73
2021/04/28 05:34:25;;;;;;;11.25;5.17;;;;;;;5.86;49.35;100908.77;1767834;79;21457;-74
2021/04/28 05:36:54;;;;;;;10.05;4.87;;;;;;;5.97;48.97;100907.78;1743240;80;21147;-71
2021/04/28 05:39:23;;;;;;;8.30;4.87;;;;;;;6.11;49.16;100908.36;1766111;79;21138;-71
2021/04/28 05:41:52;;;;;;;10.70;5.20;;;;;;;6.23;48.60;100914.23;1719367;81;21513;-71
2021/04/28 05:44:23;;;;;;;8.38;4.78;;;;;;;6.35;48.52;100921.03;1758579;80;21591;-70
2021/04/28 05:46:52;;;;;;;11.45;4.78;;;;;;;6.46;48.10;100924.76;1763172;80;21198;-67
2021/04/28 05:49:21;;;;;;;7.53;3.80;;;;;;;6.57;48.40;100924.64;1729070;81;21270;-66
2021/04/28 05:51:49;;;;;;;6.47;2.95;;;;;;;6.67;48.04;100921.89;1759078;80;21186;-70
2021/04/28 05:54:16;;;;;;;6.80;2.55;;;;;;;6.78;46.11;100921.32;1761776;80;21660;-68
2021/04/28 05:56:45;;;;;;;14.13;3.35;;;;;;;6.86;45.04;100922.57;1761482;80;22021;-68
2021/04/28 05:59:14;;;;;;;5.97;2.35;;;;;;;6.94;44.64;100927.83;1759211;80;21195;-68
2021/04/28 06:01:42;;;;;;;5.78;2.25;;;;;;;7.00;43.08;100930.95;1736055;81;21135;-62
2021/04/28 06:04:10;;;;;;;4.97;2.00;;;;;;;7.03;43.28;100934.70;1759784;80;21096;-63
2021/04/28 06:06:37;;;;;;;4.95;1.92;;;;;;;7.07;43.04;100929.66;1760411;80;21130;-58
2021/04/28 06:09:06;;;;;;;6.72;2.27;;;;;;;7.14;42.43;100930.16;1760083;81;21205;-56
2021/04/28 06:11:34;;;;;;;6.10;2.27;;;;;;;7.21;42.52;100930.20;1753781;80;21192;-57
2021/04/28 06:14:02;;;;;;;5.92;2.50;;;;;;;7.28;42.37;100929.39;1747343;80;21191;-62
2021/04/28 06:16:30;;;;;;;4.92;1.85;;;;;;;7.36;42.25;100923.69;1747813;80;21162;-66
2021/04/28 06:18:58;;;;;;;5.03;1.98;;;;;;;7.41;41.84;100933.44;1730467;81;21123;-62
2021/04/28 06:21:26;;;;;;;6.00;2.05;;;;;;;7.50;41.37;100933.36;1750376;81;21212;-68
2021/04/28 06:23:53;;;;;;;5.47;2.00;;;;;;;7.59;41.37;100934.98;1708652;82;21195;-74
2021/04/28 06:26:21;;;;;;;5.20;1.85;;;;;;;7.67;41.54;100934.54;1760648;79;21158;-67
2021/04/28 06:28:49;;;;;;;4.22;1.72;;;;;;;7.75;40.21;100932.76;1755480;79;21153;-71
2021/04/28 06:31:16;;;;;;;5.03;1.72;;;;;;;7.79;40.40;100935.11;1756516;79;21137;-68
2021/04/28 06:33:44;;;;;;;4.72;1.70;;;;;;;7.82;40.40;100936.72;1755213;79;21204;-70
2021/04/28 06:36:11;;;;;;;5.45;2.00;;;;;;;7.88;40.84;100940.74;1703214;82;21174;-69
2021/04/28 06:38:41;;;;;;;5.58;2.12;;;;;;;7.92;40.61;100932.61;1737742;80;21116;-71
2021/04/28 06:41:09;;;;;;;5.40;2.08;;;;;;;7.95;40.90;100942.05;1727002;81;21158;-72
2021/04/28 06:43:39;;;;;;;5.55;1.90;;;;;;;8.00;40.79;100937.38;1738360;80;21215;-71
2021/04/28 06:46:08;;;;;;;5.00;2.30;;;;;;;8.09;41.18;100942.55;1733311;80;21397;-73
2021/04/28 06:48:37;;;;;;;5.83;2.02;;;;;;;8.19;40.98;100947.61;1737323;81;21168;-61
2021/04/28 06:51:05;;;;;;;5.97;2.62;;;;;;;8.30;41.50;100952.18;1724497;80;21124;-75
2021/04/28 06:53:32;;;;;;;5.80;1.87;;;;;;;8.40;40.25;100945.42;1750134;80;21155;-62
2021/04/28 06:56:00;;;;;;;5.03;2.10;;;;;;;8.49;40.00;100946.66;1714855;81;21597;-73
2021/04/28 06:58:30;;;;;;;5.53;2.20;;;;;;;8.58;40.11;100943.48;1753258;81;22219;-69
2021/04/28 07:00:57;;;;;;;7.12;2.40;;;;;;;8.66;39.72;100941.70;1721642;80;21199;-68
2021/04/28 07:03:26;;;;;;;5.33;2.22;;;;;;;8.73;39.85;100945.13;1749149;80;21143;-68
2021/04/28 07:05:54;;;;;;;5.35;2.12;;;;;;;8.82;39.73;100947.63;1738314;79;22701;-70
2021/04/28 07:08:22;;;;;;;7.80;2.80;;;;;;;8.90;39.57;100947.99;1736925;81;21653;-72
2021/04/28 07:10:51;;;;;;;5.65;2.47;;;;;;;8.98;39.28;100940.95;1774219;79;22231;-69
2021/04/28 07:13:21;;;;;;;7.35;2.42;;;;;;;9.01;38.53;100949.95;1764319;79;21370;-61
2021/04/28 07:15:48;;;;;;;6.90;2.50;;;;;;;9.01;39.17;100947.31;1736470;80;21213;-75
2021/04/28 07:18:19;;;;;;;6.00;2.58;;;;;;;9.08;40.11;100953.02;1751244;80;21638;-63
2021/04/28 07:20:47;;;;;;;5.67;2.58;;;;;;;9.19;40.04;100956.24;1726270;81;21194;-70
2021/04/28 07:23:14;;;;;;;5.03;2.00;;;;;;;9.26;39.09;100952.27;1741771;80;21584;-74
2021/04/28 07:25:42;;;;;;;7.22;3.00;;;;;;;9.32;38.56;100953.19;1772271;79;21123;-75
2021/04/28 07:28:10;;;;;;;5.60;2.30;;;;;;;9.36;38.50;100948.57;1725753;81;21587;-70
2021/04/28 07:30:37;;;;;;;7.78;3.22;;;;;;;9.37;38.17;100956.84;1727706;81;21143;-67
2021/04/28 07:33:05;;;;;;;6.37;2.45;;;;;;;9.37;38.01;100944.53;1756734;80;21558;-66
2021/04/28 07:35:33;;;;;;;4.58;1.85;;;;;;;9.41;37.25;100955.20;1727283;80;21709;-69
2021/04/28 07:48:43;;;;;;;3.27;1.30;;;;;;;9.60;36.08;100943.47;1837376;75;22301;-72
2021/04/28 07:51:13;;;;;;;3.72;1.47;;;;;;;9.59;35.34;100944.42;1805199;78;21635;-72
2021/04/28 07:53:41;;;;;;;5.08;2.45;;;;;;;9.66;34.74;100941.75;1800820;78;21369;-64
2021/04/28 07:56:09;;;;;;;4.45;1.70;;;;;;;9.73;34.65;100944.80;1795334;78;21139;-74
2021/04/28 07:58:38;;;;;;;3.92;1.60;;;;;;;9.78;34.96;100935.66;1793987;78;21215;-73
2021/04/28 08:01:06;;;;;;;5.83;1.80;;;;;;;9.87;35.64;100942.09;1794635;78;21242;-69
2021/04/28 08:03:34;;;;;;;4.90;1.35;;;;;;;9.98;36.18;100935.61;1794514;78;21152;-74
2021/04/28 08:06:04;;;;;;;4.10;1.75;;;;;;;10.12;35.66;100932.05;1791641;78;21710;-74
2021/04/28 08:08:37;;;;;;;4.17;1.72;;;;;;;10.25;34.30;100946.48;1806791;78;21219;-77
2021/04/28 08:11:05;;;;;;;6.58;1.90;;;;;;;10.33;34.61;100942.88;1809754;77;21179;-65
2021/04/28 08:13:34;;;;;;;3.80;1.50;;;;;;;10.38;34.66;100937.30;1801894;77;21128;-68
2021/04/28 08:16:02;;;;;;;3.70;1.20;;;;;;;10.43;34.70;100935.19;1797004;78;21155;-60
2021/04/28 08:18:31;;;;;;;3.83;1.35;;;;;;;10.52;35.16;100931.05;1797498;78;21336;-61
2021/04/28 08:20:58;;;;;;;3.67;1.60;;;;;;;10.62;35.25;100928.61;1800038;79;21194;-67
2021/04/28 08:23:29;;;;;;;3.60;1.27;;;;;;;10.72;34.09;100939.67;1797921;77;21188;-68
2021/04/28 08:26:01;;;;;;;6.22;1.70;;;;;;;10.80;33.97;100931.23;1795393;77;21122;-66
2021/04/28 08:28:29;;;;;;;3.40;1.17;;;;;;;10.87;32.74;100939.53;1774227;79;21190;-72
2021/04/28 08:30:57;;;;;;;3.05;1.07;;;;;;;10.86;32.05;100937.84;1801102;79;21326;-71
2021/04/28 08:33:25;;;;;;;3.22;1.25;;;;;;;10.81;31.52;100934.25;1799320;79;21587;-67
2021/04/28 08:35:52;;;;;;;4.35;1.15;;;;;;;10.78;32.03;100931.83;1800786;79;21136;-66
2021/04/28 08:38:20;;;;;;;4.10;1.47;;;;;;;10.80;31.67;100932.55;1810958;78;21112;-70
2021/04/28 08:40:47;;;;;;;5.35;1.37;;;;;;;10.83;31.30;100932.34;1802968;79;21219;-68
2021/04/28 08:43:15;;;;;;;5.75;1.30;;;;;;;10.88;32.24;100938.59;1796478;79;21233;-72
2021/04/28 08:45:44;;;;;;;4.28;1.42;;;;;;;10.93;32.05;100931.20;1803885;79;21148;-69
2021/04/28 08:48:14;;;;;;;5.08;1.42;;;;;;;11.00;32.24;100925.02;1793129;78;21136;-69
2021/04/28 08:50:42;;;;;;;5.53;1.47;;;;;;;11.08;31.66;100920.02;1771027;79;21171;-69
2021/04/28 08:53:14;;;;;;;3.05;1.02;;;;;;;11.17;31.68;100919.82;1766527;79;21533;-63
2021/04/28 08:55:53;;;;;;;5.00;1.30;;;;;;;11.26;31.71;100917.80;1792355;78;22771;-73
2021/04/28 08:58:21;;;;;;;2.95;1.02;;;;;;;11.27;30.76;100924.77;1749665;80;21201;-73
2021/04/28 09:00:49;;;;;;;3.77;1.20;;;;;;;11.26;31.26;100916.48;1769265;80;22146;-73
2021/04/28 09:03:19;;;;;;;5.03;1.47;;;;;;;11.31;31.44;100918.30;1765110;80;21662;-73
2021/04/28 09:05:46;;;;;;;3.00;1.30;;;;;;;11.39;32.74;100913.30;1686953;83;21208;-73
2021/04/28 09:08:14;;;;;;;4.53;1.60;;;;;;;11.51;31.77;100918.13;1697897;83;21181;-73
2021/04/28 09:10:42;;;;;;;2.87;0.80;;;;;;;11.57;30.80;100913.72;1712152;82;21180;-74
2021/04/28 09:13:22;;;;;;;2.58;0.90;;;;;;;11.62;31.61;100919.48;1742546;81;22185;-73
2021/04/28 09:15:50;;;;;;;4.12;1.35;;;;;;;11.70;31.32;100905.69;1716941;82;21602;-73
2021/04/28 09:18:22;;;;;;;4.40;1.10;;;;;;;11.78;30.66;100910.39;1719700;82;21159;-76
2021/04/28 09:21:07;;;;;;;3.45;1.10;;;;;;;11.85;30.28;100911.59;1717700;81;21485;-74
2021/04/28 09:23:55;;;;;;;9.07;2.07;;;;;;;11.93;30.77;100913.19;1852478;76;27643;-67
2021/04/28 09:26:36;;;;;;;25.25;3.87;;;;;;;12.13;30.52;100916.09;1803310;77;21386;-67
2021/04/28 09:29:19;;;;;;;4.08;1.77;;;;;;;12.32;30.41;100911.03;1822350;77;21856;-72
2021/04/28 09:32:03;;;;;;;8.10;1.80;;;;;;;12.30;29.86;100905.04;1834631;77;21198;-71
2021/04/28 09:34:41;;;;;;;3.70;1.05;;;;;;;12.29;30.33;100903.38;1835292;77;21093;-69
2021/04/28 09:37:15;;;;;;;5.25;1.40;;;;;;;12.34;30.43;100904.31;1804045;77;21666;-70
2021/04/28 09:39:48;;;;;;;3.67;1.42;;;;;;;12.35;29.20;100897.59;1834118;77;21563;-69
2021/04/28 09:42:21;;;;;;;5.03;1.60;;;;;;;12.34;29.94;100903.86;1835948;77;21393;-69
2021/04/28 09:44:50;;;;;;;4.25;1.55;;;;;;;12.35;30.76;100904.69;1809569;77;20982;-67
2021/04/28 09:47:22;;;;;;;4.53;1.65;;;;;;;12.40;30.77;100905.16;1838781;77;21164;-67
2021/04/28 09:49:59;;;;;;;4.47;1.35;;;;;;;12.44;30.75;100901.33;1831172;77;21202;-67
2021/04/28 09:52:36;;;;;;;4.47;1.30;;;;;;;12.47;29.83;100899.73;1833860;77;21226;-69
2021/04/28 09:55:11;;;;;;;4.17;1.45;;;;;;;12.50;29.55;100894.22;1843772;77;21364;-67
2021/04/28 09:57:42;;;;;;;3.10;1.00;;;;;;;12.53;28.99;100887.38;1826824;77;21182;-69
2021/04/28 10:00:21;;;;;;;5.03;1.57;;;;;;;12.56;29.20;100891.59;1836234;77;21156;-74
2021/04/28 10:03:03;;;;;;;4.12;1.35;;;;;;;12.56;29.39;100901.66;1834849;77;21462;-70
2021/04/28 10:05:33;;;;;;;4.72;1.20;;;;;;;12.57;29.44;100893.25;1832867;77;21550;-67
2021/04/28 10:08:23;;;;;;;4.35;1.45;;;;;;;12.60;29.50;100892.52;1830353;77;21502;-66
2021/04/28 10:10:52;;;;;;;4.05;1.40;;;;;;;12.59;29.10;100889.54;1818836;77;21131;-73
2021/04/28 10:13:22;;;;;;;5.40;1.57;;;;;;;12.57;28.87;100884.01;1841468;77;21569;-67
2021/04/28 10:15:51;;;;;;;4.47;1.82;;;;;;;12.58;29.81;100889.66;1814253;77;21235;-70
2021/04/28 10:18:22;;;;;;;5.58;1.67;;;;;;;12.63;29.29;100880.88;1841201;77;21203;-70
2021/04/28 10:20:50;;;;;;;3.70;1.30;;;;;;;12.66;29.53;100888.56;1835054;77;21190;-69
2021/04/28 10:23:19;;;;;;;4.03;1.10;;;;;;;12.67;29.77;100874.37;1809037;77;21191;-68
2021/04/28 10:25:50;;;;;;;3.42;1.20;;;;;;;12.76;29.98;100872.33;1766854;80;21143;-68
2021/04/28 10:28:19;;;;;;;3.62;1.30;;;;;;;12.87;28.77;100873.25;1780532;80;21821;-70
2021/04/28 10:30:49;;;;;;;4.45;1.90;;;;;;;12.91;28.60;100871.56;1776017;80;21213;-70
2021/04/28 10:33:25;;;;;;;4.05;1.47;;;;;;;12.96;29.39;100865.88;1767893;80;21227;-67
2021/04/28 10:35:56;;;;;;;5.20;1.80;;;;;;;13.05;29.49;100869.58;1784052;80;21186;-68
2021/04/28 10:38:25;;;;;;;3.72;1.55;;;;;;;13.16;29.36;100874.79;1755419;80;21854;-66
2021/04/28 10:40:54;;;;;;;5.70;1.60;;;;;;;13.25;29.32;100870.57;1751227;80;21210;-64
2021/04/28 10:43:38;;;;;;;3.08;1.07;;;;;;;13.32;27.88;100862.02;1770993;80;21240;-66
2021/04/28 10:46:20;;;;;;;3.77;1.50;;;;;;;13.38;28.93;100868.11;1737651;80;21182;-67
2021/04/28 10:48:51;;;;;;;4.72;1.85;;;;;;;13.47;27.78;100872.27;1744637;80;21164;-66
2021/04/28 10:51:38;;;;;;;3.33;1.52;;;;;;;13.47;27.78;100863.02;1801114;79;21155;-65
2021/04/28 10:54:28;;;;;;;4.80;1.70;;;;;;;13.51;28.44;100855.17;1771680;80;21267;-67
2021/04/28 10:57:05;;;;;;;3.75;1.62;;;;;;;13.61;28.06;100858.70;1742906;80;22303;-68
2021/04/28 10:59:41;;;;;;;5.83;2.02;;;;;;;13.67;28.39;100860.83;1777161;80;22689;-68
2021/04/28 11:02:11;;;;;;;4.15;1.45;;;;;;;13.69;28.61;100846.98;1770514;80;21144;-66
2021/04/28 11:04:46;;;;;;;6.17;1.72;;;;;;;13.75;28.91;100854.41;1797421;79;21087;-65
2021/04/28 11:07:42;;;;;;;3.80;1.60;;;;;;;13.83;27.81;100856.87;1805584;79;21186;-63
2021/04/28 11:10:33;;;;;;;3.55;1.52;;;;;;;13.79;28.45;100860.27;1757245;80;21205;-63
2021/04/28 11:13:36;;;;;;;5.78;2.22;;;;;;;13.79;28.02;100851.01;1782080;79;21270;-64
2021/04/28 11:16:04;;;;;;;4.40;1.47;;;;;;;13.81;27.10;100841.13;1717411;82;21235;-64
2021/04/28 11:18:37;;;;;;;4.08;1.67;;;;;;;13.80;26.97;100842.58;1680495;84;21246;-63
2021/04/28 11:21:23;;;;;;;3.52;1.22;;;;;;;13.81;27.34;100839.80;1682389;83;21186;-65
2021/04/28 11:24:10;;;;;;;4.33;1.70;;;;;;;13.88;27.88;100831.67;1681472;85;21379;-65
2021/04/28 11:26:51;;;;;;;4.45;1.98;;;;;;;14.02;27.38;100834.93;1680925;83;22265;-64
2021/04/28 11:29:20;;;;;;;3.85;1.67;;;;;;;14.12;28.62;100829.18;1684650;83;21173;-70
2021/04/28 11:31:51;;;;;;;4.35;1.70;;;;;;;14.22;26.94;100831.39;1688080;83;21642;-69
2021/04/28 11:34:28;;;;;;;4.97;2.15;;;;;;;14.27;26.49;100832.28;1685138;83;21237;-64
2021/04/28 11:37:04;;;;;;;4.20;1.95;;;;;;;14.33;26.97;100828.28;1676883;84;21206;-66
2021/04/28 11:39:45;;;;;;;4.78;1.75;;;;;;;14.42;26.18;100832.73;1657378;84;26354;-66
2021/04/28 11:42:18;;;;;;;4.67;1.60;;;;;;;14.47;25.62;100827.41;1686120;83;21217;-65
2021/04/28 11:44:51;;;;;;;4.53;1.87;;;;;;;14.51;26.39;100825.31;1687427;83;21178;-72
2021/04/28 11:47:27;;;;;;;4.05;1.75;;;;;;;14.58;26.68;100822.95;1685583;83;21209;-68
2021/04/28 11:49:57;;;;;;;4.53;1.57;;;;;;;14.64;26.17;100824.59;1681005;83;21150;-73
2021/04/28 11:52:25;;;;;;;5.10;1.92;;;;;;;14.63;26.19;100825.55;1658025;85;22194;-69
2021/04/28 11:54:57;;;;;;;6.25;2.20;;;;;;;14.65;26.65;100825.42;1683120;83;21299;-64
2021/04/28 11:57:29;;;;;;;4.20;1.72;;;;;;;14.75;26.25;100826.75;1681545;84;21169;-69
2021/04/28 12:00:09;;;;;;;6.62;2.33;;;;;;;14.88;27.10;100825.12;1682831;83;21205;-69
2021/04/28 12:02:37;;;;;;;5.47;2.10;;;;;;;15.03;27.31;100819.28;1690477;83;21241;-70
2021/04/28 12:05:05;;;;;;;5.70;2.37;;;;;;;15.18;26.64;100812.19;1688176;83;21219;-70
2021/04/28 12:07:33;;;;;;;5.08;1.77;;;;;;;15.24;25.96;100807.16;1692662;83;21488;-70
2021/04/28 12:10:02;;;;;;;6.62;2.22;;;;;;;15.30;26.30;100811.08;1682756;84;22270;-71
2021/04/28 12:12:32;;;;;;;4.22;1.45;;;;;;;15.35;26.66;100800.05;1630727;85;21186;-73
2021/04/28 12:15:10;;;;;;;6.47;1.70;;;;;;;15.44;25.25;100804.47;1713912;81;21206;-64
2021/04/28 12:17:40;;;;;;;5.10;2.02;;;;;;;15.41;24.66;100810.05;1712812;83;21379;-70
2021/04/28 12:20:13;;;;;;;5.80;1.95;;;;;;;15.35;24.98;100795.56;1715734;82;21202;-66
2021/04/28 12:22:44;;;;;;;11.15;3.02;;;;;;;15.44;25.11;100795.69;1732683;81;21411;-70
2021/04/28 12:25:14;;;;;;;4.75;1.80;;;;;;;15.51;25.15;100788.31;1720214;82;21182;-69
2021/04/28 12:27:44;;;;;;;3.70;1.60;;;;;;;15.58;25.26;100789.42;1714923;81;21138;-69
2021/04/28 12:30:15;;;;;;;9.18;1.82;;;;;;;15.70;25.83;100781.27;1702009;83;21379;-68
2021/04/28 12:32:48;;;;;;;5.03;2.10;;;;;;;15.88;25.71;100784.01;1721836;82;21296;-63